Time;durP1;ratioP1;P1;durP2;ratioP2;P2;SDS_P1;SDS_P2;PMS_P1;PMS_P2;Temp;Humidity;BMP_temperature;BMP_pressure;BME280_temperature;BME280_humidity;BME280_pressure;Samples;Min_cycle;Max_cycle;Signal;HPM_P1;HPM_P2
2021/04/08 00:00:37;;;;;;;19.13;8.20;;;5.30;67.20;;;;;;5085675;28;27373;-54
2021/04/08 00:03:21;;;;;;;13.23;7.78;;;5.30;67.10;;;;;;5085619;28;27378;-55
2021/04/08 00:06:06;;;;;;;13.90;7.28;;;5.30;67.10;;;;;;5104487;28;27349;-55
2021/04/08 00:08:50;;;;;;;13.18;6.97;;;5.30;67.10;;;;;;5074826;28;27510;-55
2021/04/08 00:11:35;;;;;;;14.57;7.75;;;5.30;67.30;;;;;;5088787;28;27490;-55
2021/04/08 00:14:19;;;;;;;8.88;6.25;;;5.30;67.00;;;;;;5103833;28;27515;-54
2021/04/08 00:17:03;;;;;;;12.10;6.55;;;5.30;67.00;;;;;;5100747;28;27535;-54
2021/04/08 00:19:48;;;;;;;9.88;5.65;;;5.30;66.90;;;;;;5104144;28;27459;-56
2021/04/08 00:22:32;;;;;;;13.20;5.55;;;5.30;66.90;;;;;;5085435;28;27490;-54
2021/04/08 00:25:17;;;;;;;9.00;5.38;;;5.30;66.60;;;;;;5088936;28;27531;-55
2021/04/08 00:28:01;;;;;;;7.13;4.82;;;5.30;66.40;;;;;;5103829;28;27436;-56
2021/04/08 00:30:46;;;;;;;9.40;5.22;;;5.30;66.50;;;;;;5088489;28;27522;-55
2021/04/08 00:33:30;;;;;;;9.35;5.20;;;5.30;66.40;;;;;;5104002;28;27341;-50
2021/04/08 00:36:15;;;;;;;10.40;4.55;;;5.30;66.30;;;;;;5103868;28;27388;-56
2021/04/08 00:38:59;;;;;;;6.63;4.35;;;5.30;66.10;;;;;;5085269;28;27368;-55
2021/04/08 00:41:44;;;;;;;7.70;4.00;;;5.30;66.10;;;;;;5088162;28;27467;-55
2021/04/08 00:44:28;;;;;;;8.23;4.30;;;5.30;66.10;;;;;;5077914;28;27350;-56
2021/04/08 00:47:13;;;;;;;7.68;4.22;;;5.30;66.30;;;;;;5088616;28;27461;-56
2021/04/08 00:50:18;;;;;;;8.52;4.30;;;5.30;66.30;;;;;;5107380;28;27333;-55
2021/04/08 00:53:45;;;;;;;6.47;3.97;;;5.30;66.50;;;;;;5088898;28;27329;-56
2021/04/08 00:57:09;;;;;;;6.28;4.32;;;5.30;66.50;;;;;;5106982;28;27329;-55
2021/04/08 01:00:15;;;;;;;10.57;3.95;;;5.20;66.50;;;;;;5106933;28;27384;-50
2021/04/08 01:03:22;;;;;;;5.30;3.90;;;5.20;66.70;;;;;;5106907;28;27415;-52
2021/04/08 01:06:49;;;;;;;7.18;3.58;;;5.20;66.80;;;;;;5106640;28;27464;-53
2021/04/08 01:10:36;;;;;;;7.43;3.83;;;5.20;66.80;;;;;;5106322;28;27962;-56
2021/04/08 01:13:47;;;;;;;5.07;3.58;;;5.20;66.80;;;;;;5088336;28;27396;-56
2021/04/08 01:16:58;;;;;;;7.45;4.15;;;5.20;66.80;;;;;;5106620;28;27470;-56
2021/04/08 01:20:16;;;;;;;8.23;3.60;;;5.20;66.90;;;;;;5091541;28;27324;-52
2021/04/08 01:23:09;;;;;;;7.15;3.58;;;5.20;66.90;;;;;;5106315;28;27793;-54
2021/04/08 01:27:12;;;;;;;6.80;3.42;;;5.10;66.90;;;;;;5102873;28;27393;-56
2021/04/08 01:30:48;;;;;;;8.73;3.88;;;5.10;67.20;;;;;;5102888;28;27415;-56
2021/04/08 01:33:46;;;;;;;4.93;3.50;;;5.10;67.00;;;;;;5106645;28;27352;-52
2021/04/08 01:37:03;;;;;;;5.38;3.60;;;5.10;66.90;;;;;;5078185;28;27577;-52
2021/04/08 01:40:09;;;;;;;5.18;3.15;;;5.10;67.00;;;;;;5106263;28;27587;-54
2021/04/08 01:42:55;;;;;;;6.38;3.80;;;5.10;67.20;;;;;;5105994;28;27477;-53
2021/04/08 01:45:58;;;;;;;6.03;3.20;;;5.10;67.20;;;;;;5076907;28;27420;-55
2021/04/08 01:48:55;;;;;;;6.13;3.33;;;5.10;67.30;;;;;;5105337;28;27475;-55
2021/04/08 01:52:01;;;;;;;4.63;3.13;;;5.10;67.30;;;;;;5091081;28;27503;-52
2021/04/08 01:55:24;;;;;;;7.70;3.90;;;5.10;67.40;;;;;;5090594;28;27463;-55
2021/04/08 01:58:20;;;;;;;6.25;3.42;;;5.10;67.40;;;;;;5102864;28;27439;-55
2021/04/08 02:01:46;;;;;;;4.32;3.25;;;5.10;67.60;;;;;;5091002;28;27490;-54
2021/04/08 02:04:44;;;;;;;5.38;4.28;;;5.10;67.50;;;;;;5104901;28;27423;-49
2021/04/08 02:08:12;;;;;;;4.55;3.03;;;5.10;67.80;;;;;;5090876;28;27346;-54
2021/04/08 02:11:39;;;;;;;5.15;3.08;;;5.00;67.60;;;;;;5105582;28;27409;-54
2021/04/08 02:14:45;;;;;;;7.32;3.35;;;5.00;67.70;;;;;;5105105;28;27412;-56
2021/04/08 02:17:54;;;;;;;3.78;2.72;;;5.00;67.70;;;;;;5105380;28;27467;-55
2021/04/08 02:21:21;;;;;;;4.32;3.10;;;5.00;67.80;;;;;;5105532;28;27361;-56
2021/04/08 02:24:54;;;;;;;4.40;2.80;;;5.00;67.90;;;;;;5086916;28;27354;-55
2021/04/08 02:28:12;;;;;;;5.30;3.33;;;5.00;67.90;;;;;;5105534;28;27388;-56
2021/04/08 02:31:41;;;;;;;6.25;3.50;;;5.00;67.90;;;;;;5090000;28;27436;-53
2021/04/08 02:35:32;;;;;;;4.53;2.65;;;5.00;67.90;;;;;;5104824;28;27522;-53
2021/04/08 02:38:59;;;;;;;5.15;3.05;;;5.00;67.80;;;;;;5103678;28;27482;-54
2021/04/08 02:42:47;;;;;;;6.35;2.65;;;5.00;68.00;;;;;;5105165;28;27450;-55
2021/04/08 02:46:35;;;;;;;3.88;2.80;;;5.00;68.00;;;;;;5086730;28;27384;-55
2021/04/08 02:50:21;;;;;;;5.57;3.10;;;5.00;67.90;;;;;;5104904;28;27392;-55
2021/04/08 02:53:44;;;;;;;7.90;2.90;;;5.00;68.00;;;;;;5105430;28;27468;-54
2021/04/08 02:57:24;;;;;;;4.18;2.60;;;5.00;67.90;;;;;;5104726;28;27385;-56
2021/04/08 03:00:54;;;;;;;4.97;2.90;;;5.00;67.80;;;;;;5104352;28;27617;-56
2021/04/08 03:04:22;;;;;;;5.30;2.88;;;5.00;67.60;;;;;;5103612;27;26958;-55
2021/04/08 03:08:10;;;;;;;4.88;2.58;;;5.00;67.70;;;;;;5105005;28;27477;-55
2021/04/08 03:11:37;;;;;;;5.85;2.90;;;5.00;67.60;;;;;;5104359;28;27367;-56
2021/04/08 03:15:05;;;;;;;4.65;2.55;;;5.00;67.70;;;;;;5104227;28;27387;-55
2021/04/08 03:18:33;;;;;;;5.82;2.83;;;5.00;67.60;;;;;;5104023;28;27408;-53
2021/04/08 03:21:40;;;;;;;4.65;2.50;;;5.00;67.50;;;;;;5104255;28;27459;-55
2021/04/08 03:24:24;;;;;;;4.15;2.80;;;5.00;67.70;;;;;;5089333;28;27482;-48
2021/04/08 03:27:29;;;;;;;4.22;2.30;;;5.00;67.70;;;;;;5104241;28;27481;-54
2021/04/08 03:30:33;;;;;;;7.47;2.90;;;5.00;68.60;;;;;;5089347;28;27440;-55
2021/04/08 03:33:41;;;;;;;4.13;2.60;;;5.00;67.80;;;;;;5089382;28;27423;-55
2021/04/08 03:36:39;;;;;;;4.60;2.28;;;5.00;67.70;;;;;;5090228;28;27329;-54
2021/04/08 03:39:44;;;;;;;3.92;2.45;;;5.00;67.70;;;;;;5089472;28;27399;-55
2021/04/08 03:42:41;;;;;;;8.02;2.70;;;5.00;67.60;;;;;;5089004;28;27388;-55
2021/04/08 03:45:48;;;;;;;3.58;2.42;;;5.00;67.50;;;;;;5089276;28;27637;-55
2021/04/08 03:49:14;;;;;;;4.38;2.53;;;5.00;67.30;;;;;;5082561;28;27456;-53
2021/04/08 03:52:20;;;;;;;6.32;2.38;;;5.00;67.50;;;;;;5083160;28;27478;-56
2021/04/08 03:55:47;;;;;;;4.47;2.40;;;5.00;67.30;;;;;;5082824;28;27463;-55
2021/04/08 03:59:24;;;;;;;3.33;2.13;;;5.00;67.30;;;;;;5084063;28;27378;-55
2021/04/08 04:02:32;;;;;;;5.15;2.58;;;5.00;67.50;;;;;;5083572;28;27352;-55
2021/04/08 04:05:40;;;;;;;4.72;2.35;;;5.00;67.40;;;;;;5082625;28;27590;-54
2021/04/08 04:08:46;;;;;;;4.82;2.72;;;5.00;67.50;;;;;;5083791;28;27450;-56
2021/04/08 04:12:12;;;;;;;7.82;2.97;;;4.90;67.50;;;;;;5083490;28;27566;-55
2021/04/08 04:15:09;;;;;;;4.30;2.70;;;4.90;67.50;;;;;;5081620;28;27847;-55
2021/04/08 04:18:37;;;;;;;6.07;2.60;;;4.90;67.60;;;;;;5079371;28;27420;-54
2021/04/08 04:22:02;;;;;;;5.13;2.08;;;4.90;67.60;;;;;;5082912;28;27399;-56
2021/04/08 04:25:09;;;;;;;4.35;1.98;;;4.90;67.70;;;;;;5083115;28;27465;-54
2021/04/08 04:28:06;;;;;;;4.85;2.22;;;4.90;67.60;;;;;;5083283;28;27431;-54
2021/04/08 04:30:52;;;;;;;3.92;1.95;;;4.90;67.50;;;;;;5083492;28;27419;-55
2021/04/08 04:33:49;;;;;;;4.07;2.08;;;4.90;67.70;;;;;;5082507;28;27344;-52
2021/04/08 04:37:02;;;;;;;3.90;2.15;;;4.90;67.70;;;;;;5083446;28;27382;-54
2021/04/08 04:40:36;;;;;;;3.88;1.90;;;4.90;67.80;;;;;;5079977;28;27377;-54
2021/04/08 04:44:03;;;;;;;5.18;2.08;;;4.90;67.90;;;;;;5079020;28;27416;-54
2021/04/08 04:47:29;;;;;;;4.70;2.30;;;4.90;67.90;;;;;;5082543;28;27120;-55
2021/04/08 04:50:40;;;;;;;3.40;2.15;;;4.80;67.90;;;;;;5062385;28;27403;-56
2021/04/08 04:53:46;;;;;;;4.72;2.40;;;4.80;67.90;;;;;;5062686;28;27939;-55
2021/04/08 04:56:54;;;;;;;3.88;2.30;;;4.80;68.00;;;;;;5062280;28;27404;-55
2021/04/08 05:00:08;;;;;;;4.53;2.03;;;4.80;68.10;;;;;;5062904;28;27403;-53
2021/04/08 05:03:35;;;;;;;2.42;1.77;;;4.80;68.20;;;;;;5062049;28;27368;-55
2021/04/08 05:07:03;;;;;;;3.65;1.75;;;4.80;68.10;;;;;;5062203;28;27359;-55
2021/04/08 05:10:10;;;;;;;5.47;2.08;;;4.80;68.20;;;;;;5062645;28;27478;-53
2021/04/08 05:13:16;;;;;;;3.53;1.75;;;4.80;68.30;;;;;;5062208;28;27482;-56
2021/04/08 05:16:21;;;;;;;5.47;2.30;;;4.80;68.30;;;;;;5062183;28;27474;-55
2021/04/08 05:19:32;;;;;;;5.32;2.40;;;4.80;68.30;;;;;;5062399;28;27384;-53
2021/04/08 05:22:38;;;;;;;5.40;2.80;;;4.70;68.50;;;;;;5060037;28;27439;-55
2021/04/08 05:25:45;;;;;;;3.75;2.42;;;4.80;68.50;;;;;;5061327;28;27648;-55
2021/04/08 05:28:50;;;;;;;7.65;3.65;;;4.80;68.70;;;;;;5062062;28;27461;-54
2021/04/08 05:32:12;;;;;;;4.10;2.53;;;4.80;68.80;;;;;;5066086;28;27471;-54
2021/04/08 05:35:18;;;;;;;6.32;3.45;;;4.80;68.80;;;;;;5065880;28;27408;-54
2021/04/08 05:38:18;;;;;;;6.30;3.50;;;4.80;68.70;;;;;;5061777;28;27495;-55
2021/04/08 05:41:33;;;;;;;6.70;3.10;;;4.80;68.70;;;;;;5065587;28;27386;-55
2021/04/08 05:45:28;;;;;;;5.65;2.80;;;4.80;68.70;;;;;;5064290;28;27406;-55
2021/04/08 05:48:25;;;;;;;6.60;2.88;;;4.90;68.80;;;;;;5084610;28;27419;-56
2021/04/08 05:51:22;;;;;;;5.80;3.28;;;4.90;68.80;;;;;;5091251;28;27343;-56
2021/04/08 05:54:32;;;;;;;4.32;3.10;;;5.00;68.70;;;;;;5106089;28;27508;-55
2021/04/08 05:57:45;;;;;;;6.93;3.35;;;5.00;68.70;;;;;;5089538;28;27954;-56
2021/04/08 06:01:15;;;;;;;7.28;3.35;;;5.00;68.80;;;;;;5102688;28;27453;-56
2021/04/08 06:04:13;;;;;;;11.20;4.03;;;5.10;69.00;;;;;;5105053;28;27360;-56
2021/04/08 06:07:18;;;;;;;4.13;2.58;;;5.10;69.00;;;;;;5106119;28;27458;-53
2021/04/08 06:10:34;;;;;;;8.00;3.17;;;5.10;69.00;;;;;;5105494;28;27481;-54
2021/04/08 06:13:46;;;;;;;6.75;3.10;;;5.20;69.20;;;;;;5064071;28;27357;-53
2021/04/08 06:16:52;;;;;;;7.18;3.58;;;5.20;69.20;;;;;;5105619;28;27412;-52
2021/04/08 06:20:20;;;;;;;10.40;4.72;;;5.20;69.00;;;;;;5105820;28;27695;-55
2021/04/08 06:23:27;;;;;;;10.60;4.07;;;5.20;69.10;;;;;;5104861;28;27414;-53
2021/04/08 06:26:44;;;;;;;5.55;3.53;;;5.30;68.90;;;;;;5105089;28;27501;-56
2021/04/08 06:29:51;;;;;;;6.15;3.22;;;5.30;69.00;;;;;;5105692;28;27385;-56
2021/04/08 06:33:18;;;;;;;4.63;3.17;;;5.40;68.60;;;;;;5104068;28;27392;-55
2021/04/08 06:37:06;;;;;;;7.97;3.55;;;5.40;68.80;;;;;;5105029;28;27477;-55
2021/04/08 06:40:18;;;;;;;7.95;3.70;;;5.50;68.40;;;;;;5101961;27;27474;-56
2021/04/08 06:43:26;;;;;;;5.55;3.95;;;5.70;68.40;;;;;;5105039;28;27408;-55
2021/04/08 06:46:31;;;;;;;8.80;3.70;;;5.80;68.20;;;;;;5105328;28;27426;-49
2021/04/08 06:49:26;;;;;;;7.13;3.63;;;5.90;68.10;;;;;;5104787;28;27474;-53
2021/04/08 06:52:31;;;;;;;4.47;3.03;;;6.00;68.00;;;;;;5105487;28;27427;-56
2021/04/08 06:55:38;;;;;;;6.97;3.60;;;6.20;67.80;;;;;;5089510;28;27351;-57
2021/04/08 06:58:35;;;;;;;6.60;3.92;;;6.40;67.20;;;;;;5089727;28;27590;-56
2021/04/08 07:01:45;;;;;;;7.88;3.22;;;6.50;66.70;;;;;;5072414;28;27930;-56
2021/04/08 07:04:58;;;;;;;5.43;2.90;;;6.60;66.90;;;;;;5105510;28;27447;-56
2021/04/08 07:08:07;;;;;;;6.82;2.53;;;6.70;67.10;;;;;;5104780;28;27459;-56
2021/04/08 07:11:05;;;;;;;6.28;2.65;;;6.70;66.40;;;;;;5105111;28;27352;-56
2021/04/08 07:14:12;;;;;;;5.68;2.75;;;6.80;66.40;;;;;;5102257;28;27362;-54
2021/04/08 07:17:18;;;;;;;6.25;2.70;;;6.90;66.10;;;;;;5089656;28;27439;-56
2021/04/08 07:20:11;;;;;;;4.55;2.28;;;7.00;66.60;;;;;;5090046;28;27452;-53
2021/04/08 07:23:35;;;;;;;7.00;3.58;;;7.10;66.60;;;;;;5105385;28;27376;-57
2021/04/08 07:26:51;;;;;;;8.48;2.78;;;7.10;66.70;;;;;;5105234;28;27359;-56
2021/04/08 07:29:43;;;;;;;3.28;2.35;;;7.10;66.90;;;;;;5104650;28;27327;-56
2021/04/08 07:33:39;;;;;;;4.90;2.40;;;7.00;66.10;;;;;;5101670;28;27345;-56
2021/04/08 07:36:34;;;;;;;6.80;2.28;;;7.00;67.60;;;;;;5105222;28;27396;-55
2021/04/08 07:39:43;;;;;;;4.93;1.90;;;7.00;66.80;;;;;;5104915;28;27993;-55
2021/04/08 07:43:13;;;;;;;4.68;2.20;;;7.00;67.30;;;;;;5104692;28;27505;-56
2021/04/08 07:46:40;;;;;;;6.88;2.67;;;6.90;65.80;;;;;;5101459;28;27408;-56
2021/04/08 07:49:32;;;;;;;4.90;2.78;;;6.90;66.20;;;;;;5104241;28;27931;-55
2021/04/08 07:52:20;;;;;;;4.20;2.45;;;6.90;66.10;;;;;;5103820;28;27324;-56
2021/04/08 07:55:10;;;;;;;3.83;2.33;;;6.90;65.80;;;;;;5104789;28;27432;-55
2021/04/08 07:58:14;;;;;;;5.38;3.85;;;6.80;65.90;;;;;;5104793;28;27482;-56
2021/04/08 08:01:21;;;;;;;6.57;2.60;;;6.90;66.50;;;;;;5089628;28;27518;-56
2021/04/08 08:04:19;;;;;;;4.18;1.90;;;6.90;67.10;;;;;;5104009;28;27489;-55
2021/04/08 08:07:28;;;;;;;9.35;2.90;;;6.90;66.50;;;;;;5104921;28;27361;-56
2021/04/08 08:10:55;;;;;;;7.82;2.78;;;7.00;66.30;;;;;;5101327;28;27416;-56
2021/04/08 08:14:13;;;;;;;6.03;2.33;;;7.00;66.30;;;;;;5104455;28;27498;-52
2021/04/08 08:17:21;;;;;;;4.80;2.40;;;7.00;66.10;;;;;;5103301;28;27997;-56
2021/04/08 08:20:26;;;;;;;6.47;2.67;;;7.10;65.80;;;;;;5104445;28;27328;-54
2021/04/08 08:23:44;;;;;;;6.63;2.78;;;7.10;65.40;;;;;;5104367;28;27414;-56
2021/04/08 08:26:44;;;;;;;5.38;2.67;;;7.10;65.20;;;;;;5088720;28;27392;-56
2021/04/08 08:29:55;;;;;;;2.80;1.95;;;7.20;66.30;;;;;;5104136;28;27833;-53
2021/04/08 08:33:04;;;;;;;8.13;2.30;;;7.30;65.70;;;;;;5104527;28;27470;-52
2021/04/08 08:36:10;;;;;;;7.35;2.45;;;7.40;65.70;;;;;;5091978;28;27356;-56
2021/04/08 08:39:16;;;;;;;7.32;2.50;;;7.40;65.40;;;;;;5088911;28;27387;-56
2021/04/08 08:42:44;;;;;;;8.43;2.63;;;7.50;64.50;;;;;;5103589;28;27341;-56
2021/04/08 08:46:10;;;;;;;5.80;2.65;;;7.60;64.50;;;;;;5102748;28;27416;-56
2021/04/08 08:49:08;;;;;;;4.93;2.55;;;7.90;64.00;;;;;;5102687;28;27363;-56
2021/04/08 08:52:05;;;;;;;5.57;2.92;;;8.30;63.70;;;;;;5089233;28;27412;-55
2021/04/08 08:55:13;;;;;;;5.40;2.88;;;8.70;61.80;;;;;;5103871;28;27373;-56
2021/04/08 08:58:21;;;;;;;8.25;2.75;;;9.00;60.70;;;;;;5088378;28;27472;-54
2021/04/08 09:01:48;;;;;;;4.30;2.22;;;9.20;59.60;;;;;;5085499;28;27426;-56
2021/04/08 09:05:35;;;;;;;4.32;2.33;;;9.30;58.90;;;;;;5104236;28;27371;-56
2021/04/08 09:09:10;;;;;;;4.00;2.47;;;9.90;59.10;;;;;;5092374;28;27921;-56
2021/04/08 09:12:18;;;;;;;4.70;2.55;;;10.60;56.90;;;;;;5107020;28;27324;-53
2021/04/08 09:15:27;;;;;;;114.22;35.17;;;11.00;56.30;;;;;;5106476;28;27384;-54
2021/04/08 09:18:54;;;;;;;194.25;158.30;;;11.60;55.10;;;;;;5107217;28;27430;-57
2021/04/08 09:22:07;;;;;;;24.42;13.63;;;12.30;54.40;;;;;;5106470;28;27977;-57
2021/04/08 09:25:35;;;;;;;39.25;35.53;;;12.90;51.30;;;;;;5106993;28;27433;-55
2021/04/08 09:29:15;;;;;;;42.85;38.92;;;13.40;51.40;;;;;;5104039;28;27425;-57
2021/04/08 09:32:30;;;;;;;15.25;12.55;;;14.00;51.50;;;;;;5106575;28;27420;-57
2021/04/08 09:35:47;;;;;;;62.80;57.90;;;14.00;50.30;;;;;;5107008;28;27402;-57
2021/04/08 09:38:38;;;;;;;28.27;25.83;;;13.90;52.30;;;;;;5106910;28;27394;-57
2021/04/08 09:41:42;;;;;;;29.63;27.35;;;13.50;50.70;;;;;;5106960;28;27400;-57
2021/04/08 09:44:47;;;;;;;64.57;59.50;;;13.00;52.40;;;;;;5103267;28;27427;-57
2021/04/08 09:48:11;;;;;;;17.95;15.02;;;12.60;53.40;;;;;;5088481;28;27939;-56
2021/04/08 09:51:01;;;;;;;72.40;66.18;;;12.30;53.20;;;;;;5106728;28;27344;-57
2021/04/08 09:53:59;;;;;;;100.30;91.85;;;12.00;54.80;;;;;;5106847;28;27486;-57
2021/04/08 09:57:10;;;;;;;71.38;64.95;;;11.90;55.80;;;;;;5106400;28;27396;-57
2021/04/08 10:00:26;;;;;;;42.35;38.65;;;11.80;55.70;;;;;;5106573;28;27870;-56
2021/04/08 10:03:31;;;;;;;47.13;43.40;;;11.70;55.60;;;;;;5106353;28;27501;-57
2021/04/08 10:06:35;;;;;;;24.63;22.58;;;11.70;55.70;;;;;;5106544;28;27478;-57
2021/04/08 10:09:52;;;;;;;31.27;28.10;;;11.70;55.50;;;;;;5106731;28;27450;-55
2021/04/08 10:13:00;;;;;;;18.58;16.88;;;11.80;56.10;;;;;;5106348;28;27395;-57
2021/04/08 10:16:01;;;;;;;10.27;8.30;;;11.90;55.90;;;;;;5105326;28;27397;-57
2021/04/08 10:19:07;;;;;;;8.88;8.00;;;12.00;54.90;;;;;;5106648;28;27491;-57
2021/04/08 10:22:36;;;;;;;11.57;9.32;;;12.00;54.00;;;;;;5106467;28;27549;-56
2021/04/08 10:25:58;;;;;;;6.68;6.00;;;11.90;55.00;;;;;;5106221;28;27951;-57
2021/04/08 10:29:06;;;;;;;7.60;5.60;;;11.90;54.90;;;;;;5106190;28;27316;-53
2021/04/08 10:32:11;;;;;;;6.57;4.65;;;12.20;55.00;;;;;;5106501;28;27367;-57
2021/04/08 10:35:20;;;;;;;5.88;3.70;;;12.30;53.50;;;;;;5106268;28;27308;-57
2021/04/08 10:38:31;;;;;;;8.55;3.95;;;12.30;54.70;;;;;;5105522;28;27907;-57
2021/04/08 10:42:05;;;;;;;4.82;3.30;;;12.40;54.50;;;;;;5104441;28;27422;-57
2021/04/08 10:45:39;;;;;;;5.53;3.10;;;12.50;54.60;;;;;;5105428;28;27490;-57
2021/04/08 10:48:45;;;;;;;4.20;2.35;;;12.60;53.70;;;;;;5105160;28;27417;-57
2021/04/08 10:51:46;;;;;;;5.90;2.78;;;12.70;54.40;;;;;;5105789;28;27394;-57
2021/04/08 10:55:05;;;;;;;5.85;3.13;;;12.90;54.40;;;;;;5105181;28;27375;-57
2021/04/08 10:58:41;;;;;;;2.78;2.25;;;13.20;53.10;;;;;;5105278;28;27580;-57
2021/04/08 11:01:50;;;;;;;3.88;2.20;;;13.60;53.10;;;;;;5090239;28;27353;-57
2021/04/08 11:05:05;;;;;;;6.63;2.25;;;13.80;52.60;;;;;;5104987;28;27425;-57
2021/04/08 11:08:20;;;;;;;5.25;2.10;;;13.90;52.70;;;;;;5105330;28;27434;-57
2021/04/08 11:11:24;;;;;;;2.78;1.95;;;14.20;51.60;;;;;;5063358;28;27603;-57
2021/04/08 11:14:21;;;;;;;2.70;1.60;;;14.30;50.40;;;;;;5105428;28;27460;-57
2021/04/08 11:17:27;;;;;;;6.38;2.17;;;14.30;51.70;;;;;;5105720;28;27403;-57
2021/04/08 11:20:39;;;;;;;3.47;1.60;;;14.50;51.90;;;;;;5090072;28;27391;-58
2021/04/08 11:23:48;;;;;;;2.75;1.77;;;14.80;52.00;;;;;;5105050;28;27474;-57
2021/04/08 11:26:46;;;;;;;4.97;2.00;;;15.10;52.70;;;;;;5086918;28;26972;-57
2021/04/08 11:29:53;;;;;;;3.33;1.98;;;15.30;52.10;;;;;;5105410;28;27321;-57
2021/04/08 11:32:51;;;;;;;2.58;1.55;;;15.20;51.20;;;;;;5102126;28;27501;-56
2021/04/08 11:35:56;;;;;;;4.80;2.03;;;15.00;51.20;;;;;;5090344;28;27429;-58
2021/04/08 11:39:12;;;;;;;3.80;1.85;;;14.70;51.50;;;;;;5104683;28;27471;-57
2021/04/08 11:42:39;;;;;;;4.95;2.05;;;14.50;51.90;;;;;;5065834;28;27529;-57
2021/04/08 11:45:27;;;;;;;5.18;1.48;;;14.20;51.50;;;;;;5086721;28;27485;-57
2021/04/08 11:48:25;;;;;;;5.18;2.17;;;14.00;51.80;;;;;;5104665;28;27578;-57
2021/04/08 11:51:39;;;;;;;7.25;2.28;;;13.90;52.20;;;;;;5104876;28;27466;-58
2021/04/08 11:55:09;;;;;;;4.43;1.75;;;13.80;51.30;;;;;;5078108;28;27869;-57
2021/04/08 11:58:24;;;;;;;3.85;2.00;;;13.50;52.00;;;;;;5104767;28;27329;-57
2021/04/08 12:01:17;;;;;;;3.33;1.65;;;13.40;52.50;;;;;;5104770;28;27400;-56
2021/04/08 12:04:22;;;;;;;4.40;1.95;;;13.20;52.80;;;;;;5103922;28;27423;-57
2021/04/08 12:07:50;;;;;;;3.15;1.70;;;13.10;52.70;;;;;;5104931;28;27372;-58
2021/04/08 12:10:56;;;;;;;3.58;1.70;;;13.10;52.10;;;;;;5104414;28;27309;-56
2021/04/08 12:14:04;;;;;;;3.55;1.95;;;13.00;52.10;;;;;;5104540;28;27324;-57
2021/04/08 12:17:11;;;;;;;3.88;1.98;;;12.90;51.70;;;;;;5104816;28;27472;-56
2021/04/08 12:20:18;;;;;;;3.47;1.98;;;12.80;51.90;;;;;;5089389;28;27957;-57
2021/04/08 12:23:35;;;;;;;3.60;1.60;;;12.70;52.30;;;;;;5085956;28;27329;-57
2021/04/08 12:26:36;;;;;;;2.47;1.50;;;12.70;52.20;;;;;;5104241;28;27355;-55
2021/04/08 12:29:41;;;;;;;2.97;1.80;;;12.70;52.80;;;;;;5104416;28;27415;-57
2021/04/08 12:32:42;;;;;;;6.07;2.00;;;12.80;52.90;;;;;;5103739;28;27477;-57
2021/04/08 12:35:49;;;;;;;5.53;2.10;;;12.90;53.20;;;;;;5063393;28;27472;-57
2021/04/08 12:39:04;;;;;;;5.00;2.28;;;13.00;53.00;;;;;;5107520;28;27318;-57
2021/04/08 12:42:10;;;;;;;4.63;2.55;;;13.10;53.20;;;;;;5106884;28;27443;-57
2021/04/08 12:45:17;;;;;;;3.72;2.17;;;13.30;53.20;;;;;;5092476;28;27493;-56
2021/04/08 12:48:44;;;;;;;5.40;2.60;;;13.40;53.60;;;;;;5107311;28;27406;-58
2021/04/08 12:51:40;;;;;;;4.07;2.22;;;13.50;53.40;;;;;;5107549;28;27345;-57
2021/04/08 12:55:07;;;;;;;5.38;2.13;;;13.50;54.20;;;;;;5108010;28;27374;-57
2021/04/08 12:58:13;;;;;;;5.68;2.70;;;13.60;53.20;;;;;;5106288;28;27513;-57
2021/04/08 13:01:18;;;;;;;4.78;2.55;;;13.50;51.40;;;;;;5107682;28;27470;-57
2021/04/08 13:04:19;;;;;;;3.13;2.38;;;13.50;53.60;;;;;;5106253;28;27477;-57
2021/04/08 13:07:19;;;;;;;7.57;3.08;;;13.50;51.70;;;;;;5104497;28;27387;-57
2021/04/08 13:10:33;;;;;;;5.60;2.60;;;13.50;52.80;;;;;;5064452;28;27958;-57
2021/04/08 13:13:45;;;;;;;7.13;3.28;;;13.50;52.10;;;;;;5107648;28;27450;-56
2021/04/08 13:16:56;;;;;;;6.65;3.17;;;13.60;52.40;;;;;;5104373;28;27484;-57
2021/04/08 13:20:02;;;;;;;5.68;3.00;;;13.60;52.80;;;;;;5077902;28;27642;-58
2021/04/08 13:22:49;;;;;;;4.20;2.35;;;13.70;53.00;;;;;;5107100;28;27919;-50
2021/04/08 13:25:55;;;;;;;4.13;2.67;;;13.70;53.20;;;;;;5106868;28;27408;-58
2021/04/08 13:29:00;;;;;;;3.55;2.42;;;13.80;54.30;;;;;;5106602;28;27391;-58
2021/04/08 13:32:14;;;;;;;4.38;2.28;;;13.90;53.90;;;;;;5107201;28;27328;-56
2021/04/08 13:35:41;;;;;;;3.88;1.90;;;13.80;53.00;;;;;;5106910;28;27375;-58
2021/04/08 13:38:26;;;;;;;4.43;2.55;;;13.70;51.50;;;;;;5106561;28;27413;-55
2021/04/08 13:41:32;;;;;;;3.50;2.40;;;13.70;51.50;;;;;;5107211;28;27361;-56
2021/04/08 13:44:24;;;;;;;5.78;2.00;;;13.70;52.00;;;;;;5106003;28;27475;-57
2021/04/08 13:47:31;;;;;;;5.03;1.98;;;13.60;51.80;;;;;;5107050;28;27399;-58
2021/04/08 13:50:28;;;;;;;4.28;2.22;;;13.60;51.70;;;;;;5086301;28;27410;-58
2021/04/08 13:53:31;;;;;;;2.78;2.00;;;13.60;51.60;;;;;;5083393;28;27471;-58
2021/04/08 13:56:39;;;;;;;5.75;3.33;;;13.60;51.10;;;;;;5086534;28;27383;-57
2021/04/08 13:59:45;;;;;;;5.03;2.78;;;13.60;50.90;;;;;;5086166;28;27950;-57
2021/04/08 14:02:52;;;;;;;6.93;3.05;;;13.70;52.20;;;;;;5085926;28;27466;-57
2021/04/08 14:05:57;;;;;;;6.40;2.85;;;13.70;51.80;;;;;;5085867;28;27397;-57
2021/04/08 14:09:06;;;;;;;5.35;2.42;;;13.70;51.30;;;;;;5060078;28;27394;-57
2021/04/08 14:12:23;;;;;;;3.72;2.30;;;13.60;49.20;;;;;;5085758;28;27987;-57
2021/04/08 14:15:35;;;;;;;4.10;2.20;;;13.60;52.20;;;;;;5086080;28;27466;-57
2021/04/08 14:18:40;;;;;;;4.35;2.17;;;13.60;54.40;;;;;;5085468;28;27368;-57
2021/04/08 14:21:46;;;;;;;4.95;2.33;;;13.60;55.20;;;;;;5085681;28;27418;-57
2021/04/08 14:24:59;;;;;;;4.47;2.10;;;13.70;54.50;;;;;;5085602;28;27326;-58
2021/04/08 14:27:50;;;;;;;4.78;2.60;;;13.70;55.00;;;;;;5085957;28;27391;-57
2021/04/08 14:31:18;;;;;;;4.05;2.33;;;13.70;53.40;;;;;;5082742;28;27455;-58
2021/04/08 14:34:51;;;;;;;5.80;2.47;;;13.80;54.70;;;;;;5082470;28;27438;-58
2021/04/08 14:37:35;;;;;;;4.43;2.50;;;13.80;54.00;;;;;;5083332;28;27450;-55
2021/04/08 14:40:42;;;;;;;6.35;2.40;;;13.80;55.00;;;;;;5085430;28;27421;-57
2021/04/08 14:43:40;;;;;;;10.50;2.88;;;13.80;53.10;;;;;;5084791;28;27348;-58
2021/04/08 14:46:45;;;;;;;5.45;2.83;;;13.80;54.60;;;;;;5085747;28;27392;-58
2021/04/08 14:50:12;;;;;;;4.28;2.53;;;13.80;54.80;;;;;;5103833;28;27574;-57
2021/04/08 14:53:25;;;;;;;4.13;2.45;;;13.90;54.50;;;;;;5105366;28;27420;-58
2021/04/08 14:56:51;;;;;;;5.63;2.83;;;14.00;53.90;;;;;;5106009;28;27407;-58
2021/04/08 15:00:03;;;;;;;4.88;2.33;;;14.00;53.30;;;;;;5104373;27;27474;-57
2021/04/08 15:03:00;;;;;;;3.50;2.28;;;14.00;53.70;;;;;;5105724;28;27374;-57
2021/04/08 15:06:13;;;;;;;3.35;2.47;;;13.90;53.70;;;;;;5105377;28;27430;-57
2021/04/08 15:09:50;;;;;;;5.18;3.47;;;14.00;53.80;;;;;;5104935;28;27462;-58
2021/04/08 15:12:56;;;;;;;5.03;2.45;;;13.90;53.60;;;;;;5063232;28;27334;-58
2021/04/08 15:15:54;;;;;;;4.53;2.38;;;14.00;53.30;;;;;;5105022;28;28055;-58
2021/04/08 15:19:00;;;;;;;5.00;2.40;;;13.90;51.50;;;;;;5106358;28;27419;-58
2021/04/08 15:22:07;;;;;;;4.43;2.50;;;13.90;52.90;;;;;;5105550;28;27447;-58
2021/04/08 15:25:13;;;;;;;5.28;2.45;;;13.80;52.20;;;;;;5105104;28;27534;-58
2021/04/08 15:28:26;;;;;;;4.38;2.65;;;13.80;52.00;;;;;;5104564;28;27367;-57
2021/04/08 15:31:33;;;;;;;3.15;2.50;;;13.80;53.60;;;;;;5070220;28;27404;-58
2021/04/08 15:34:24;;;;;;;4.80;2.30;;;13.80;52.50;;;;;;5105257;28;27446;-57
2021/04/08 15:37:29;;;;;;;5.10;2.15;;;13.80;52.20;;;;;;5105017;28;27442;-57
2021/04/08 15:40:22;;;;;;;8.70;2.40;;;13.80;52.00;;;;;;5101680;28;27443;-58
2021/04/08 15:43:30;;;;;;;4.10;2.40;;;13.80;51.70;;;;;;5105013;28;27321;-57
2021/04/08 15:46:56;;;;;;;71.07;33.35;;;13.70;51.10;;;;;;5103834;28;27466;-57
2021/04/08 15:49:47;;;;;;;37.47;19.85;;;13.70;55.10;;;;;;5089383;28;27455;-57
2021/04/08 15:52:58;;;;;;;50.95;19.67;;;13.70;56.40;;;;;;5101661;28;27950;-56
2021/04/08 15:56:11;;;;;;;29.60;15.57;;;13.60;57.20;;;;;;5104603;28;27414;-58
2021/04/08 15:59:37;;;;;;;14.35;8.57;;;13.60;57.60;;;;;;5103354;28;27494;-56
2021/04/08 16:02:43;;;;;;;20.98;11.43;;;13.50;55.80;;;;;;5104041;28;27376;-58
2021/04/08 16:05:51;;;;;;;25.02;10.77;;;13.50;60.60;;;;;;5104361;28;27403;-59
2021/04/08 16:08:52;;;;;;;13.02;8.43;;;13.40;60.60;;;;;;5071698;28;27382;-57
2021/04/08 16:11:43;;;;;;;10.13;5.18;;;13.40;59.80;;;;;;5103848;28;27398;-60
2021/04/08 16:14:54;;;;;;;6.05;4.38;;;13.40;55.30;;;;;;5104834;28;27419;-56
2021/04/08 16:17:52;;;;;;;12.15;4.35;;;13.30;53.50;;;;;;5103946;28;27407;-59
2021/04/08 17:12:07;;;;;;;8.00;3.03;;;12.50;55.00;;;;;;5120732;27;27649;-60
2021/04/08 17:15:13;;;;;;;6.97;2.85;;;12.40;55.40;;;;;;5122076;27;27500;-72
2021/04/08 17:18:21;;;;;;;6.25;3.22;;;12.40;55.30;;;;;;5121926;27;27329;-58
2021/04/08 17:21:48;;;;;;;5.75;3.35;;;12.40;56.20;;;;;;5121530;27;27613;-58
2021/04/08 17:24:40;;;;;;;6.00;2.63;;;12.40;55.60;;;;;;5120953;27;27492;-58